createdAt,value
2023-02-19T00:01:24.901Z,9.43
2023-02-19T00:03:54.573Z,9.23
2023-02-19T00:06:21.911Z,8.77
2023-02-19T00:08:48.515Z,7.80
2023-02-19T00:11:16.371Z,8.57
2023-02-19T00:13:44.232Z,6.30
2023-02-19T00:16:15.384Z,8.13
2023-02-19T00:18:42.936Z,7.50
2023-02-19T00:21:09.748Z,6.00
2023-02-19T00:23:36.724Z,7.05
2023-02-19T00:26:17.187Z,7.68
2023-02-19T00:28:45.457Z,9.05
2023-02-19T00:31:19.334Z,8.38
2023-02-19T00:33:46.345Z,7.53
2023-02-19T00:36:13.221Z,7.43
2023-02-19T00:38:40.581Z,8.75
2023-02-19T00:41:19.075Z,6.95
2023-02-19T00:43:46.561Z,5.78
2023-02-19T00:46:14.169Z,8.40
2023-02-19T00:48:40.781Z,8.00
2023-02-19T00:51:07.324Z,8.82
2023-02-19T00:53:33.928Z,6.80
2023-02-19T00:56:00.486Z,7.25
2023-02-19T00:58:27.154Z,9.05
2023-02-19T01:00:53.696Z,8.15
2023-02-19T01:03:22.531Z,9.27
2023-02-19T01:05:49.802Z,7.97
2023-02-19T01:08:16.490Z,8.82
2023-02-19T01:10:43.277Z,9.05
2023-02-19T01:13:10.003Z,9.13
2023-02-19T01:15:36.653Z,9.48
2023-02-19T01:18:03.326Z,10.10
2023-02-19T01:20:29.964Z,9.25
2023-02-19T01:22:56.534Z,9.65
2023-02-19T01:25:23.128Z,9.23
2023-02-19T01:27:49.673Z,9.60
2023-02-19T01:30:17.059Z,8.60
2023-02-19T01:32:44.690Z,8.65
2023-02-19T01:35:11.330Z,9.20
2023-02-19T01:37:37.864Z,9.93
2023-02-19T01:40:04.568Z,8.30
2023-02-19T01:42:31.170Z,10.27
2023-02-19T01:45:18.723Z,9.77
2023-02-19T01:47:46.245Z,7.00
2023-02-19T01:50:12.849Z,9.50
2023-02-19T01:52:39.486Z,8.43
2023-02-19T01:55:07.617Z,9.63
2023-02-19T01:57:36.292Z,9.10
2023-02-19T02:00:05.839Z,7.75
2023-02-19T02:02:40.445Z,8.73
2023-02-19T02:05:10.457Z,8.68
2023-02-19T02:07:55.683Z,8.60
2023-02-19T02:10:22.411Z,9.10
2023-02-19T02:12:49.502Z,9.32
2023-02-19T02:15:16.613Z,9.20
2023-02-19T02:18:01.939Z,9.23
2023-02-19T02:20:34.658Z,8.80
2023-02-19T02:23:08.751Z,9.07
2023-02-19T02:25:55.026Z,8.05
2023-02-19T02:28:35.526Z,7.32
2023-02-19T02:31:05.605Z,7.68
2023-02-19T02:33:44.503Z,7.65
2023-02-19T02:36:22.106Z,7.50
2023-02-19T02:38:49.435Z,7.13
2023-02-19T02:41:20.202Z,6.30
2023-02-19T02:43:46.783Z,7.07
2023-02-19T02:46:18.515Z,6.70
2023-02-19T02:48:53.776Z,4.82
2023-02-19T02:51:20.803Z,6.30
2023-02-19T02:54:26.064Z,5.22
2023-02-19T02:56:54.938Z,5.30
2023-02-19T02:59:26.074Z,5.72
2023-02-19T03:02:11.388Z,5.40
2023-02-19T03:05:04.220Z,4.18
2023-02-19T03:07:36.057Z,4.05
2023-02-19T03:10:05.636Z,3.47
2023-02-19T03:12:51.463Z,3.97
2023-02-19T03:15:37.882Z,4.00
2023-02-19T03:18:26.011Z,2.72
2023-02-19T03:20:55.747Z,3.97
2023-02-19T03:23:43.440Z,3.78
2023-02-19T03:26:11.649Z,3.58
2023-02-19T03:29:04.565Z,2.42
2023-02-19T03:31:33.009Z,3.00
2023-02-19T03:34:03.445Z,2.50
2023-02-19T03:36:35.766Z,3.00
2023-02-19T03:39:09.126Z,2.67
2023-02-19T03:41:40.549Z,2.25
2023-02-19T03:44:10.775Z,1.67
2023-02-19T03:46:51.472Z,2.42
2023-02-19T03:49:27.170Z,2.13
2023-02-19T03:52:00.609Z,2.25
2023-02-19T03:54:27.161Z,2.17
2023-02-19T03:57:00.727Z,1.83
2023-02-19T03:59:34.314Z,1.92
2023-02-19T04:02:03.855Z,2.00
2023-02-19T04:04:33.399Z,1.95
2023-02-19T04:07:00.250Z,1.98
2023-02-19T04:09:34.896Z,2.00
2023-02-19T04:12:06.870Z,1.70
2023-02-19T04:14:46.767Z,1.52
2023-02-19T04:17:23.822Z,2.15
2023-02-19T04:19:51.436Z,1.98
2023-02-19T04:22:18.785Z,1.55
2023-02-19T04:24:49.847Z,2.00
2023-02-19T04:27:16.437Z,1.60
2023-02-19T04:29:43.189Z,1.77
2023-02-19T04:32:12.934Z,2.10
2023-02-19T04:34:39.782Z,2.17
2023-02-19T04:37:06.674Z,2.45
2023-02-19T04:39:33.356Z,1.60
2023-02-19T04:41:59.988Z,2.08
2023-02-19T04:44:26.515Z,1.98
2023-02-19T04:46:53.276Z,2.00
2023-02-19T04:49:19.962Z,1.95
2023-02-19T04:51:46.514Z,2.33
2023-02-19T04:54:13.092Z,1.48
2023-02-19T04:56:40.013Z,1.38
2023-02-19T04:59:06.889Z,1.80
2023-02-19T05:01:33.528Z,1.50
2023-02-19T05:04:00.137Z,1.55
2023-02-19T05:06:27.486Z,0.95
2023-02-19T05:08:54.136Z,1.58
2023-02-19T05:11:23.771Z,1.20
2023-02-19T05:13:50.446Z,1.00
2023-02-19T05:16:17.346Z,1.50
2023-02-19T05:18:44.793Z,1.65
2023-02-19T05:21:11.987Z,1.77
2023-02-19T05:23:39.138Z,1.70
2023-02-19T05:26:06.576Z,1.55
2023-02-19T05:28:33.676Z,1.00
2023-02-19T05:31:03.595Z,1.57
2023-02-19T05:33:30.157Z,1.20
2023-02-19T05:35:56.807Z,1.38
2023-02-19T05:38:23.536Z,1.90
2023-02-19T05:40:50.599Z,1.45
2023-02-19T05:43:17.454Z,1.20
2023-02-19T05:45:44.115Z,1.35
2023-02-19T05:48:10.965Z,1.15
2023-02-19T05:50:39.708Z,1.50
2023-02-19T05:53:12.477Z,1.20
2023-02-19T05:55:39.023Z,0.98
2023-02-19T05:58:05.604Z,1.45
2023-02-19T06:00:33.092Z,1.33
2023-02-19T06:02:59.681Z,1.27
2023-02-19T06:05:26.243Z,1.40
2023-02-19T06:07:52.921Z,1.35
2023-02-19T06:10:19.420Z,1.33
2023-02-19T06:12:46.042Z,1.30
2023-02-19T06:15:12.659Z,1.65
2023-02-19T06:17:39.349Z,1.50
2023-02-19T06:20:06.066Z,1.45
2023-02-19T06:22:32.722Z,1.15
2023-02-19T06:24:59.294Z,1.42
2023-02-19T06:27:25.837Z,1.25
2023-02-19T06:29:52.418Z,1.55
2023-02-19T06:32:19.194Z,1.42
2023-02-19T06:34:45.956Z,1.40
2023-02-19T06:37:12.567Z,1.90
2023-02-19T06:39:39.113Z,1.95
2023-02-19T06:42:05.721Z,1.05
2023-02-19T06:44:32.254Z,1.27
2023-02-19T06:46:58.835Z,1.60
2023-02-19T06:49:26.097Z,1.80
2023-02-19T06:51:52.672Z,1.33
2023-02-19T06:54:19.255Z,1.50
2023-02-19T06:56:47.152Z,1.38
2023-02-19T07:01:40.750Z,1.70
2023-02-19T07:04:07.644Z,1.77
2023-02-19T07:06:34.689Z,1.50
2023-02-19T07:09:01.615Z,1.80
2023-02-19T07:11:30.000Z,1.42
2023-02-19T07:13:58.629Z,1.80
2023-02-19T07:16:25.596Z,2.45
2023-02-19T07:18:52.327Z,2.30
2023-02-19T07:21:19.233Z,1.48
2023-02-19T07:23:46.166Z,1.80
2023-02-19T07:26:13.786Z,2.10
2023-02-19T07:28:40.986Z,2.50
2023-02-19T07:31:07.642Z,1.92
2023-02-19T07:33:34.224Z,1.90
2023-02-19T07:36:00.774Z,3.08
2023-02-19T07:38:27.625Z,3.05
2023-02-19T07:40:55.175Z,2.47
2023-02-19T07:43:22.202Z,2.70
2023-02-19T07:45:49.042Z,2.47
2023-02-19T07:48:15.734Z,3.13
2023-02-19T07:50:42.346Z,6.70
2023-02-19T07:53:08.882Z,19.08
2023-02-19T07:55:35.483Z,5.13
2023-02-19T07:58:01.996Z,4.70
2023-02-19T08:00:28.626Z,9.80
2023-02-19T08:03:01.258Z,3.22
2023-02-19T08:05:28.442Z,2.70
2023-02-19T08:07:54.987Z,3.60
2023-02-19T08:10:40.313Z,2.97
2023-02-19T08:13:22.869Z,3.42
2023-02-19T08:15:51.053Z,3.78
2023-02-19T08:18:18.697Z,3.47
2023-02-19T08:20:45.248Z,5.60
2023-02-19T08:23:12.586Z,3.63
2023-02-19T08:25:39.811Z,2.03
2023-02-19T08:28:06.563Z,2.40
2023-02-19T08:30:33.480Z,4.25
2023-02-19T08:33:02.266Z,7.97
2023-02-19T08:35:29.282Z,4.45
2023-02-19T08:37:56.827Z,2.03
2023-02-19T08:40:23.997Z,13.65
2023-02-19T08:42:50.594Z,8.55
2023-02-19T08:45:17.242Z,6.28
2023-02-19T08:47:43.891Z,2.45
2023-02-19T08:50:10.654Z,6.28
2023-02-19T08:52:37.181Z,3.65
2023-02-19T08:55:04.667Z,3.03
2023-02-19T08:57:31.522Z,3.13
2023-02-19T08:59:58.168Z,1.88
2023-02-19T09:02:24.783Z,3.60
2023-02-19T09:04:51.371Z,3.70
2023-02-19T09:07:18.160Z,3.08
2023-02-19T09:09:44.698Z,2.10
2023-02-19T09:12:12.147Z,1.88
2023-02-19T09:14:39.076Z,2.03
2023-02-19T09:17:06.762Z,2.27
2023-02-19T09:19:33.750Z,2.20
2023-02-19T09:22:00.256Z,1.98
2023-02-19T09:24:26.887Z,9.27
2023-02-19T09:26:54.035Z,2.33
2023-02-19T09:29:21.649Z,3.13
2023-02-19T09:31:48.300Z,1.80
2023-02-19T09:34:14.964Z,2.22
2023-02-19T09:36:41.527Z,1.90
2023-02-19T09:39:08.941Z,1.73
2023-02-19T09:41:37.232Z,2.45
2023-02-19T09:44:05.267Z,1.23
2023-02-19T09:46:33.189Z,8.38
2023-02-19T09:49:05.444Z,2.38
2023-02-19T09:51:33.389Z,1.98
2023-02-19T09:56:26.758Z,2.03
2023-02-19T09:58:55.988Z,1.60
2023-02-19T10:01:25.405Z,1.80
2023-02-19T10:03:52.332Z,2.28
2023-02-19T10:06:24.024Z,1.42
2023-02-19T10:08:52.417Z,1.83
2023-02-19T10:11:19.433Z,1.30
2023-02-19T10:13:48.362Z,2.00
2023-02-19T10:16:17.645Z,1.40
2023-02-19T10:18:45.120Z,1.30
2023-02-19T10:21:14.368Z,2.05
2023-02-19T10:23:41.325Z,2.00
2023-02-19T10:26:08.049Z,1.83
2023-02-19T10:28:35.239Z,1.77
2023-02-19T10:31:03.578Z,1.88
2023-02-19T10:33:30.584Z,1.48
2023-02-19T10:35:58.746Z,5.87
2023-02-19T10:38:30.755Z,2.03
2023-02-19T10:40:59.228Z,1.70
2023-02-19T10:43:33.047Z,1.90
2023-02-19T10:46:07.289Z,3.33
2023-02-19T10:48:44.272Z,2.13
2023-02-19T10:51:13.034Z,2.47
2023-02-19T10:53:44.524Z,2.35
2023-02-19T10:56:13.483Z,2.05
2023-02-19T10:58:42.459Z,2.00
2023-02-19T11:01:10.050Z,1.98
2023-02-19T11:03:36.752Z,2.20
2023-02-19T11:06:04.461Z,2.20
2023-02-19T11:08:33.488Z,2.10
2023-02-19T11:11:00.080Z,1.58
2023-02-19T11:13:32.369Z,2.30
2023-02-19T11:15:59.966Z,2.22
2023-02-19T11:18:27.648Z,1.92
2023-02-19T11:20:57.176Z,1.60
2023-02-19T11:23:26.981Z,1.55
2023-02-19T11:25:54.531Z,2.22
2023-02-19T11:28:24.188Z,1.90
2023-02-19T11:30:50.722Z,2.50
2023-02-19T11:33:17.325Z,2.10
2023-02-19T11:35:44.840Z,1.80
2023-02-19T11:38:12.588Z,1.73
2023-02-19T11:40:41.541Z,1.92
2023-02-19T11:43:14.333Z,1.70
2023-02-19T11:45:46.910Z,2.97
2023-02-19T11:48:32.208Z,2.30
2023-02-19T11:51:10.100Z,2.08
2023-02-19T11:53:41.043Z,1.92
2023-02-19T11:56:18.935Z,1.80
2023-02-19T11:58:45.442Z,2.28
2023-02-19T12:01:24.367Z,1.90
2023-02-19T12:03:56.884Z,2.00
2023-02-19T12:06:27.201Z,1.95
2023-02-19T12:08:53.844Z,2.75
2023-02-19T12:11:38.974Z,1.80
2023-02-19T12:14:24.121Z,1.98
2023-02-19T12:17:08.831Z,1.83
2023-02-19T12:19:39.351Z,1.80
2023-02-19T12:22:24.627Z,1.42
2023-02-19T12:25:13.127Z,1.75
2023-02-19T12:27:39.777Z,1.67
2023-02-19T12:30:18.483Z,2.33
2023-02-19T12:32:45.022Z,1.40
2023-02-19T12:35:27.136Z,2.47
2023-02-19T12:38:11.738Z,1.65
2023-02-19T12:40:57.369Z,6.10
2023-02-19T12:43:24.509Z,13.48
2023-02-19T12:46:00.905Z,14.98
2023-02-19T12:48:36.458Z,2.15
2023-02-19T12:51:07.088Z,1.50
2023-02-19T12:53:33.589Z,1.95
2023-02-19T12:56:03.149Z,1.88
2023-02-19T12:58:37.939Z,3.70
2023-02-19T13:01:05.568Z,1.25
2023-02-19T13:03:39.142Z,1.58
2023-02-19T13:06:25.948Z,1.50
2023-02-19T13:09:07.310Z,1.65
2023-02-19T13:11:49.179Z,2.70
2023-02-19T13:14:47.878Z,1.48
2023-02-19T13:17:32.842Z,1.48
2023-02-19T13:20:02.579Z,1.20
2023-02-19T13:23:00.665Z,1.90
2023-02-19T13:25:41.157Z,1.67
2023-02-19T13:28:20.461Z,1.02
2023-02-19T13:31:16.779Z,1.30
2023-02-19T13:33:48.257Z,1.50
2023-02-19T13:36:16.542Z,1.00
2023-02-19T13:38:44.568Z,0.60
2023-02-19T13:41:18.775Z,0.50
2023-02-19T13:43:47.011Z,0.90
2023-02-19T13:46:16.431Z,0.52
2023-02-19T13:48:44.438Z,0.63
2023-02-19T13:53:44.778Z,0.73
2023-02-19T13:56:29.924Z,0.80
2023-02-19T13:59:12.649Z,0.52
2023-02-19T14:01:51.609Z,0.70
2023-02-19T14:04:25.953Z,0.70
2023-02-19T14:07:04.465Z,0.52
2023-02-19T14:09:43.993Z,0.70
2023-02-19T14:12:10.773Z,1.05
2023-02-19T14:14:46.864Z,9.75
2023-02-19T14:17:37.538Z,5.72
2023-02-19T14:20:10.156Z,9.88
2023-02-19T14:22:57.822Z,6.05
2023-02-19T14:27:52.560Z,5.10
2023-02-19T14:30:21.062Z,4.85
2023-02-19T14:32:54.584Z,7.88
2023-02-19T14:35:26.557Z,3.47
2023-02-19T14:40:41.621Z,8.07
2023-02-19T14:43:12.294Z,4.75
2023-02-19T14:45:42.053Z,5.32
2023-02-19T14:48:16.566Z,12.45
2023-02-19T14:50:45.825Z,12.30
2023-02-19T14:53:14.052Z,4.50
2023-02-19T14:55:42.925Z,13.75
2023-02-19T14:58:15.682Z,8.20
2023-02-19T15:00:42.696Z,0.65
2023-02-19T15:03:44.981Z,13.10
2023-02-19T15:06:17.569Z,5.32
2023-02-19T15:08:46.582Z,9.52
2023-02-19T15:11:17.268Z,7.10
2023-02-19T15:13:45.770Z,4.57
2023-02-19T15:16:23.666Z,0.38
2023-02-19T15:18:53.249Z,1.13
2023-02-19T15:23:46.257Z,3.60
2023-02-19T15:26:42.198Z,0.70
2023-02-19T15:29:12.626Z,1.75
2023-02-19T15:31:48.690Z,0.70
2023-02-19T15:34:16.594Z,0.70
2023-02-19T15:39:16.664Z,2.00
2023-02-19T15:41:44.710Z,0.80
2023-02-19T15:46:38.220Z,9.60
2023-02-19T15:49:11.372Z,3.10
2023-02-19T15:51:44.670Z,1.92
2023-02-19T15:54:18.254Z,0.80
2023-02-19T15:56:46.993Z,3.03
2023-02-19T15:59:17.759Z,0.93
2023-02-19T16:01:44.561Z,0.95
2023-02-19T16:04:13.113Z,7.88
2023-02-19T16:06:59.599Z,3.97
2023-02-19T16:09:34.932Z,1.75
2023-02-19T16:12:03.617Z,0.57
2023-02-19T16:14:31.783Z,0.85
2023-02-19T16:17:10.693Z,1.10
2023-02-19T16:19:57.734Z,1.08
2023-02-19T16:22:25.797Z,1.50
2023-02-19T16:24:54.056Z,0.73
2023-02-19T16:27:50.174Z,0.73
2023-02-19T16:30:16.730Z,1.50
2023-02-19T16:32:45.495Z,1.33
2023-02-19T16:35:30.744Z,0.80
2023-02-19T16:37:58.220Z,0.80
2023-02-19T16:40:24.745Z,0.82
2023-02-19T16:42:51.969Z,1.05
2023-02-19T16:45:18.686Z,0.77
2023-02-19T16:47:48.483Z,1.98
2023-02-19T16:50:16.171Z,3.53
2023-02-19T16:52:51.547Z,3.10
2023-02-19T16:55:18.130Z,2.58
2023-02-19T16:57:45.010Z,1.02
2023-02-19T17:00:22.191Z,3.38
2023-02-19T17:02:49.784Z,3.83
2023-02-19T17:05:16.820Z,4.82
2023-02-19T17:07:43.536Z,4.03
2023-02-19T17:10:13.103Z,4.65
2023-02-19T17:12:39.707Z,3.08
2023-02-19T17:15:06.350Z,3.08
2023-02-19T17:17:32.920Z,2.63
2023-02-19T17:19:59.460Z,1.40
2023-02-19T17:22:26.056Z,2.03
2023-02-19T17:24:52.595Z,2.03
2023-02-19T17:27:19.175Z,2.47
2023-02-19T17:29:45.719Z,2.00
2023-02-19T17:32:12.472Z,15.40
2023-02-19T17:34:39.092Z,5.80
2023-02-19T17:37:05.848Z,1.67
2023-02-19T17:39:32.485Z,4.00
2023-02-19T17:41:59.073Z,7.30
2023-02-19T17:44:25.601Z,3.60
2023-02-19T17:46:52.204Z,3.30
2023-02-19T17:49:19.636Z,5.50
2023-02-19T17:51:46.155Z,7.70
2023-02-19T17:54:12.765Z,5.78
2023-02-19T17:56:43.255Z,5.32
2023-02-19T17:59:10.813Z,5.55
2023-02-19T18:01:37.504Z,3.65
2023-02-19T18:04:04.626Z,1.80
2023-02-19T18:06:31.232Z,5.40
2023-02-19T18:08:57.841Z,6.45
2023-02-19T18:11:24.429Z,4.47
2023-02-19T18:13:51.460Z,4.55
2023-02-19T18:16:18.443Z,4.50
2023-02-19T18:18:45.396Z,3.57
2023-02-19T18:21:13.046Z,3.80
2023-02-19T18:23:39.852Z,3.28
2023-02-19T18:26:07.066Z,3.70
2023-02-19T18:28:34.224Z,4.65
2023-02-19T18:31:00.867Z,8.18
2023-02-19T18:33:27.631Z,12.80
2023-02-19T18:35:54.261Z,8.00
2023-02-19T18:38:20.802Z,6.47
2023-02-19T18:40:47.561Z,5.15
2023-02-19T18:43:14.191Z,4.22
2023-02-19T18:45:40.748Z,4.45
2023-02-19T18:48:07.343Z,3.72
2023-02-19T18:50:35.024Z,5.07
2023-02-19T18:53:01.756Z,6.30
2023-02-19T18:55:28.290Z,5.47
2023-02-19T18:57:54.846Z,5.65
2023-02-19T19:00:25.510Z,6.75
2023-02-19T19:02:55.906Z,6.75
2023-02-19T19:05:23.211Z,6.22
2023-02-19T19:07:53.525Z,6.70
2023-02-19T19:10:38.551Z,11.40
2023-02-19T19:13:05.254Z,7.93
2023-02-19T19:15:32.001Z,7.07
2023-02-19T19:17:59.701Z,7.45
2023-02-19T19:20:26.258Z,7.63
2023-02-19T19:22:53.127Z,8.13
2023-02-19T19:25:20.739Z,7.15
2023-02-19T19:27:47.376Z,5.82
2023-02-19T19:30:14.161Z,6.70
2023-02-19T19:32:40.827Z,5.78
2023-02-19T19:35:07.568Z,6.47
2023-02-19T19:37:34.174Z,5.70
2023-02-19T19:40:01.123Z,6.05
2023-02-19T19:42:27.744Z,6.63
2023-02-19T19:44:55.794Z,6.28
2023-02-19T19:47:22.424Z,5.20
2023-02-19T19:49:48.977Z,5.85
2023-02-19T19:52:15.553Z,4.78
2023-02-19T19:54:43.130Z,5.13
2023-02-19T19:57:10.392Z,4.75
2023-02-19T19:59:39.156Z,4.90
2023-02-19T20:02:06.972Z,4.68
2023-02-19T20:04:33.529Z,5.97
2023-02-19T20:07:00.248Z,5.93
2023-02-19T20:09:29.052Z,5.72
2023-02-19T20:11:55.648Z,5.63
2023-02-19T20:14:22.815Z,5.22
2023-02-19T20:16:50.600Z,5.10
2023-02-19T20:19:17.797Z,6.68
2023-02-19T20:21:45.288Z,6.00
2023-02-19T20:24:24.140Z,5.60
2023-02-19T20:26:51.716Z,6.90
2023-02-19T20:29:18.308Z,6.50
2023-02-19T20:31:48.641Z,6.15
2023-02-19T20:34:15.420Z,6.15
2023-02-19T20:36:45.588Z,6.65
2023-02-19T20:39:12.288Z,6.43
2023-02-19T20:41:38.823Z,6.70
2023-02-19T20:44:05.603Z,7.60
2023-02-19T20:46:32.169Z,6.55
2023-02-19T20:48:58.783Z,6.63
2023-02-19T20:51:25.282Z,6.78
2023-02-19T20:53:51.839Z,7.63
2023-02-19T20:56:18.357Z,9.07
2023-02-19T20:58:45.134Z,5.97
2023-02-19T21:01:12.107Z,7.05
2023-02-19T21:03:38.767Z,5.10
2023-02-19T21:06:05.411Z,6.43
2023-02-19T21:08:31.956Z,5.35
2023-02-19T21:10:58.463Z,5.68
2023-02-19T21:13:25.031Z,5.80
2023-02-19T21:15:51.620Z,6.88
2023-02-19T21:18:19.897Z,6.20
2023-02-19T21:20:46.485Z,6.47
2023-02-19T21:23:13.970Z,7.00
2023-02-19T21:25:40.560Z,3.72
2023-02-19T21:28:09.093Z,6.93
2023-02-19T21:30:36.041Z,6.28
2023-02-19T21:33:03.005Z,7.37
2023-02-19T21:35:29.579Z,6.50
2023-02-19T21:37:56.119Z,7.30
2023-02-19T21:40:23.452Z,7.63
2023-02-19T21:42:50.013Z,6.80
2023-02-19T21:45:16.615Z,7.38
2023-02-19T21:47:43.273Z,7.00
2023-02-19T21:50:09.956Z,6.68
2023-02-19T21:52:36.569Z,7.07
2023-02-19T21:55:03.522Z,3.85
2023-02-19T21:57:30.080Z,5.72
2023-02-19T21:59:56.649Z,7.20
2023-02-19T22:02:24.295Z,6.28
2023-02-19T22:04:53.544Z,6.30
2023-02-19T22:07:20.494Z,4.07
2023-02-19T22:09:47.858Z,7.27
2023-02-19T22:12:14.394Z,7.00
2023-02-19T22:14:40.920Z,7.53
2023-02-19T22:17:07.493Z,4.95
2023-02-19T22:19:34.039Z,6.93
2023-02-19T22:22:00.630Z,6.70
2023-02-19T22:24:27.171Z,5.85
2023-02-19T22:26:57.566Z,6.88
2023-02-19T22:29:24.362Z,4.97
2023-02-19T22:31:51.056Z,6.72
2023-02-19T22:34:17.773Z,7.22
2023-02-19T22:36:44.779Z,5.68
2023-02-19T22:39:22.484Z,7.70
2023-02-19T22:41:49.458Z,6.72
2023-02-19T22:44:16.209Z,6.10
2023-02-19T22:46:47.127Z,6.85
2023-02-19T22:49:13.719Z,7.43
2023-02-19T22:51:40.327Z,6.65
2023-02-19T22:54:07.035Z,4.88
2023-02-19T22:56:33.621Z,7.00
2023-02-19T22:59:00.124Z,6.63
2023-02-19T23:01:26.763Z,7.50
2023-02-19T23:03:54.795Z,5.72
2023-02-19T23:06:32.041Z,7.15
2023-02-19T23:08:59.996Z,7.03
2023-02-19T23:13:53.476Z,6.50
2023-02-19T23:16:20.170Z,6.20
2023-02-19T23:18:46.786Z,6.25
2023-02-19T23:21:13.571Z,5.75
2023-02-19T23:23:43.297Z,6.03
2023-02-19T23:26:10.076Z,6.70
2023-02-19T23:28:36.902Z,6.60
2023-02-19T23:31:03.624Z,5.90
2023-02-19T23:33:30.202Z,6.88
2023-02-19T23:35:56.743Z,7.03
2023-02-19T23:38:23.280Z,6.45
2023-02-19T23:40:49.967Z,5.70
2023-02-19T23:43:16.606Z,7.30
2023-02-19T23:45:43.174Z,6.75
2023-02-19T23:48:09.742Z,8.52
2023-02-19T23:50:36.279Z,4.72
2023-02-19T23:53:02.829Z,11.32
2023-02-19T23:55:29.451Z,7.05
2023-02-19T23:57:56.044Z,7.57
